Dickinson, ND

7:30 AM MDT on August 29, 2014 (GMT -0600)
Dickinson Municipal | Change Station
CLOSE
Current Station
Airport
Location: Dickinson,
Elevation: 2592 ft
Nearby Weather Stations

Elev 2592 ft 46.80 °N, 102.80 °W | Updated 34 minutes ago

Mostly Cloudy
Mostly Cloudy
61 °F
Feels Like 61 °F
N
15
Wind Variable Wind from NW

Today
High -- | Low -- °F
--% Chance of Precip.
Yesterday
High -- | Low -- °F
Precip. -- in
6:06 AM 7:36 PM
Waxing Crescent, 14% visible
Pressure 29.87 in
Visibility 10.0 miles
Clouds Few 5500 ft
Mostly Cloudy 9000 ft
Mostly Cloudy 11000 ft
Dew Point 55 °F
Humidity 81%
Rainfall 0.00 in
Snow Depth Not available.
UV 0 out of 12
Pollen 9.10 out of 12
Air Quality Not available.
Flu Activity Not available.
METAR KDIK 291256Z AUTO 31013KT 10SM FEW055 BKN090 BKN110 16/13 A2992 RMK AO2 SLP115 T01610128

More Conditions Fewer Conditions

Pressure 29.87 in
Visibility 10.0 miles
Clouds Few 5500 ft
Mostly Cloudy 9000 ft
Mostly Cloudy 11000 ft
Dew Point 55 °F
Humidity 81%
Rainfall 0.00 in
Snow Depth Not available.
UV 0 out of 12
Pollen 9.10 out of 12
Air Quality Not available.
Flu Activity Not available.
METAR KDIK 291256Z AUTO 31013KT 10SM FEW055 BKN090 BKN110 16/13 A2992 RMK AO2 SLP115 T01610128

More Conditions Fewer Conditions

10-Day Weather Forecast

Almanac

Astronomy

Aug. 29, 2014 Rise Set
Actual Time 6:06 AM MDT 7:36 PM MDT
Civil Twilight 5:35 AM MDT 8:07 PM MDT
Nautical Twilight 4:56 AM MDT 8:46 PM MDT
Astronomical Twilight 4:14 AM MDT 9:27 PM MDT
Moon 10:15 AM MDT 9:16 PM MDT
Length of Visible Light 14h 32m
Length of Day
13h 29m
Tomorrow will be 3m 12s shorter.
Waxing Crescent, 14% of the Moon is Illuminated
Today
Waxing Crescent
Sep 2
First Quarter
Sep 8
Full
Sep 15
Last Quarter
Sep 24
New

Today's Extremes

State Highs State Lows

Community

WunderPhotos

Upload Photos

1,748,229 photos uploaded!

Nearby

Snow Depth

Station Depth Elevation
No new snow has been reported.

Earthquake Activity

City Distance Mag. Time & Date
No recent earthquake activity has been reported nearby.
Minimum magnitude displayed is 2.5.

Coastal Water Temperatures

Place Temperature
No Stations Reporting

Nearby Weather Stations